createdAt,value
2019-01-28T00:00:58.134Z,12.40
2019-01-28T00:03:27.127Z,16.90
2019-01-28T00:05:55.910Z,12.20
2019-01-28T00:08:24.883Z,10.38
2019-01-28T00:10:53.890Z,15.18
2019-01-28T00:13:22.661Z,20.92
2019-01-28T00:15:53.183Z,13.95
2019-01-28T00:18:22.020Z,10.25
2019-01-28T00:20:50.879Z,17.57
2019-01-28T00:23:19.913Z,8.00
2019-01-28T00:25:48.835Z,21.85
2019-01-28T00:28:17.666Z,7.03
2019-01-28T00:30:46.639Z,17.73
2019-01-28T00:33:15.527Z,10.45
2019-01-28T00:35:44.412Z,16.35
2019-01-28T00:38:13.375Z,8.73
2019-01-28T00:40:42.226Z,14.20
2019-01-28T00:43:10.999Z,20.60
2019-01-28T00:45:39.740Z,10.53
2019-01-28T00:48:08.600Z,10.43
2019-01-28T00:50:37.347Z,9.10
2019-01-28T00:53:06.240Z,9.75
2019-01-28T00:55:35.173Z,15.20
2019-01-28T00:58:04.099Z,12.35
2019-01-28T01:00:33.326Z,12.80
2019-01-28T01:03:02.358Z,16.67
2019-01-28T01:05:31.290Z,13.43
2019-01-28T01:08:00.186Z,15.15
2019-01-28T01:10:29.013Z,13.40
2019-01-28T01:12:57.807Z,17.82
2019-01-28T01:15:26.712Z,18.85
2019-01-28T01:17:55.525Z,12.60
2019-01-28T01:20:24.369Z,14.03
2019-01-28T01:22:53.103Z,14.70
2019-01-28T01:25:21.902Z,18.90
2019-01-28T01:27:50.753Z,20.45
2019-01-28T01:30:19.686Z,12.37
2019-01-28T01:32:48.507Z,19.23
2019-01-28T01:35:17.448Z,15.05
2019-01-28T01:37:46.473Z,13.10
2019-01-28T01:40:17.615Z,12.37
2019-01-28T01:42:46.419Z,11.40
2019-01-28T01:45:16.696Z,12.15
2019-01-28T01:47:45.535Z,18.55
2019-01-28T01:50:14.702Z,14.38
2019-01-28T01:52:43.710Z,15.60
2019-01-28T01:55:13.589Z,13.30
2019-01-28T01:57:42.718Z,13.38
2019-01-28T02:00:16.606Z,14.80
2019-01-28T02:02:45.586Z,18.27
2019-01-28T02:05:14.500Z,10.80
2019-01-28T02:07:43.432Z,10.48
2019-01-28T02:10:14.533Z,11.97
2019-01-28T02:12:43.456Z,8.83
2019-01-28T02:15:17.718Z,19.98
2019-01-28T02:17:46.819Z,11.85
2019-01-28T02:20:16.041Z,10.90
2019-01-28T02:22:44.879Z,12.60
2019-01-28T02:25:14.368Z,12.75
2019-01-28T02:27:43.332Z,9.78
2019-01-28T02:30:14.222Z,12.05
2019-01-28T02:32:43.079Z,11.75
2019-01-28T02:35:12.292Z,10.20
2019-01-28T02:37:41.235Z,16.60
2019-01-28T02:40:12.786Z,10.45
2019-01-28T02:42:41.592Z,12.35
2019-01-28T02:45:11.215Z,17.57
2019-01-28T02:47:40.104Z,12.35
2019-01-28T02:50:11.983Z,8.35
2019-01-28T02:52:40.769Z,13.15
2019-01-28T02:55:09.690Z,13.72
2019-01-28T02:57:38.467Z,11.40
2019-01-28T03:00:11.510Z,13.43
2019-01-28T03:02:40.279Z,10.75
2019-01-28T03:05:09.458Z,12.30
2019-01-28T03:07:38.250Z,13.75
2019-01-28T03:10:10.471Z,13.25
2019-01-28T03:12:39.344Z,14.73
2019-01-28T03:15:08.922Z,8.70
2019-01-28T03:17:37.765Z,11.55
2019-01-28T03:20:07.752Z,8.68
2019-01-28T03:22:36.967Z,13.40
2019-01-28T03:25:06.945Z,10.03
2019-01-28T03:27:35.782Z,12.03
2019-01-28T03:30:06.065Z,10.85
2019-01-28T03:32:34.888Z,12.18
2019-01-28T03:35:04.360Z,11.93
2019-01-28T03:37:33.111Z,11.40
2019-01-28T03:40:01.894Z,10.90
2019-01-28T03:42:30.724Z,15.18
2019-01-28T03:44:59.591Z,11.35
2019-01-28T03:47:28.333Z,13.85
2019-01-28T03:49:57.109Z,14.75
2019-01-28T03:52:26.285Z,9.90
2019-01-28T03:54:55.198Z,12.20
2019-01-28T03:57:24.078Z,15.90
2019-01-28T03:59:52.928Z,13.93
2019-01-28T04:02:21.885Z,14.53
2019-01-28T04:04:51.032Z,14.18
2019-01-28T04:07:20.035Z,13.10
2019-01-28T04:09:49.568Z,19.27
2019-01-28T04:12:18.669Z,15.70
2019-01-28T04:14:47.599Z,13.85
2019-01-28T04:17:16.555Z,15.25
2019-01-28T04:19:45.310Z,16.45
2019-01-28T04:22:14.226Z,12.60
2019-01-28T04:24:43.402Z,21.52
2019-01-28T04:27:12.197Z,18.87
2019-01-28T04:29:43.988Z,17.50
2019-01-28T04:32:12.838Z,22.02
2019-01-28T04:34:41.696Z,16.67
2019-01-28T04:37:10.454Z,16.23
2019-01-28T04:39:39.464Z,15.83
2019-01-28T04:42:08.270Z,19.62
2019-01-28T04:44:37.075Z,18.10
2019-01-28T04:47:06.172Z,16.12
2019-01-28T04:49:35.135Z,18.02
2019-01-28T04:52:04.053Z,21.62
2019-01-28T04:54:33.209Z,14.18
2019-01-28T04:57:01.981Z,19.15
2019-01-28T04:59:30.768Z,19.50
2019-01-28T05:01:59.604Z,19.32
2019-01-28T05:04:28.399Z,18.52
2019-01-28T05:06:57.463Z,22.13
2019-01-28T05:09:26.481Z,16.90
2019-01-28T05:11:55.428Z,27.40
2019-01-28T05:14:24.547Z,22.85
2019-01-28T05:16:53.487Z,21.30
2019-01-28T05:19:22.282Z,16.97
2019-01-28T05:21:51.343Z,18.45
2019-01-28T05:24:20.111Z,16.65
2019-01-28T05:26:48.920Z,21.75
2019-01-28T05:29:17.740Z,21.33
2019-01-28T05:31:46.591Z,19.27
2019-01-28T05:34:15.496Z,26.15
2019-01-28T05:36:44.383Z,20.12
2019-01-28T05:39:13.299Z,20.35
2019-01-28T05:41:42.431Z,23.83
2019-01-28T05:44:11.262Z,18.17
2019-01-28T05:46:40.155Z,20.55
2019-01-28T05:49:09.080Z,18.30
2019-01-28T05:51:37.953Z,20.08
2019-01-28T05:54:07.311Z,20.52
2019-01-28T05:56:36.231Z,17.75
2019-01-28T05:59:05.087Z,21.68
2019-01-28T06:01:33.966Z,20.00
2019-01-28T06:04:02.792Z,20.48
2019-01-28T06:06:31.605Z,17.12
2019-01-28T06:09:00.371Z,19.10
2019-01-28T06:11:29.251Z,20.62
2019-01-28T06:13:58.067Z,22.87
2019-01-28T06:16:26.897Z,18.27
2019-01-28T06:18:55.962Z,22.80
2019-01-28T06:21:24.959Z,17.07
2019-01-28T06:23:53.910Z,19.27
2019-01-28T06:26:22.875Z,22.45
2019-01-28T06:28:51.776Z,16.93
2019-01-28T06:31:20.640Z,20.95
2019-01-28T06:33:49.451Z,22.10
2019-01-28T06:36:18.302Z,18.75
2019-01-28T06:38:47.292Z,22.05
2019-01-28T06:41:16.161Z,19.40
2019-01-28T06:43:45.634Z,19.90
2019-01-28T06:46:14.447Z,23.02
2019-01-28T06:48:43.267Z,16.45
2019-01-28T06:51:12.060Z,23.05
2019-01-28T06:53:40.915Z,22.17
2019-01-28T06:56:09.794Z,17.35
2019-01-28T06:58:38.695Z,20.80
2019-01-28T07:01:07.723Z,19.60
2019-01-28T07:03:36.595Z,22.10
2019-01-28T07:06:05.640Z,17.52
2019-01-28T07:08:34.430Z,29.85
2019-01-28T07:11:03.316Z,27.55
2019-01-28T07:13:32.115Z,21.85
2019-01-28T07:16:02.855Z,19.25
2019-01-28T07:18:31.691Z,21.10
2019-01-28T07:21:00.480Z,18.23
2019-01-28T07:23:29.361Z,21.05
2019-01-28T07:25:58.256Z,19.80
2019-01-28T07:28:27.168Z,22.32
2019-01-28T07:30:55.954Z,20.23
2019-01-28T07:33:24.791Z,23.30
2019-01-28T07:35:53.578Z,20.82
2019-01-28T07:38:22.536Z,18.40
2019-01-28T07:40:51.716Z,20.00
2019-01-28T07:43:20.595Z,18.98
2019-01-28T07:45:49.571Z,19.00
2019-01-28T07:48:18.457Z,21.97
2019-01-28T07:50:47.466Z,19.73
2019-01-28T07:53:16.420Z,17.92
2019-01-28T07:55:45.420Z,19.02
2019-01-28T07:58:14.211Z,18.65
2019-01-28T08:00:43.201Z,23.67
2019-01-28T08:03:12.111Z,18.73
2019-01-28T08:05:41.161Z,18.25
2019-01-28T08:08:10.344Z,19.02
2019-01-28T08:10:39.351Z,19.70
2019-01-28T08:13:08.329Z,20.17
2019-01-28T08:15:37.275Z,28.35
2019-01-28T08:18:10.999Z,22.75
2019-01-28T08:20:37.000Z,20.88
2019-01-28T08:23:06.056Z,22.60
2019-01-28T08:25:34.987Z,18.32
2019-01-28T08:28:04.054Z,24.05
2019-01-28T08:30:35.032Z,19.05
2019-01-28T08:33:04.379Z,22.55
2019-01-28T08:35:35.152Z,18.12
2019-01-28T08:38:04.186Z,23.07
2019-01-28T08:40:33.169Z,19.52
2019-01-28T08:43:01.947Z,18.80
2019-01-28T08:45:30.906Z,23.42
2019-01-28T08:47:59.770Z,16.65
2019-01-28T08:50:28.871Z,21.82
2019-01-28T08:52:57.774Z,14.70
2019-01-28T08:55:27.113Z,23.92
2019-01-28T08:57:56.209Z,24.57
2019-01-28T09:00:30.720Z,16.75
2019-01-28T09:02:59.860Z,16.40
2019-01-28T09:05:29.583Z,18.05
2019-01-28T09:07:58.751Z,21.30
2019-01-28T09:10:27.835Z,21.00
2019-01-28T09:12:56.864Z,18.80
2019-01-28T09:15:26.502Z,20.82
2019-01-28T09:17:55.636Z,16.90
2019-01-28T09:20:24.901Z,18.02
2019-01-28T09:22:53.955Z,18.12
2019-01-28T09:25:22.977Z,17.65
2019-01-28T09:27:52.930Z,19.25
2019-01-28T09:30:29.669Z,16.52
2019-01-28T09:32:58.775Z,16.27
2019-01-28T09:35:27.935Z,18.70
2019-01-28T09:37:57.155Z,19.87
2019-01-28T09:40:27.329Z,17.50
2019-01-28T09:42:56.337Z,20.20
2019-01-28T09:45:30.163Z,20.62
2019-01-28T09:47:59.157Z,18.20
2019-01-28T09:50:28.662Z,18.23
2019-01-28T09:52:59.174Z,20.60
2019-01-28T09:55:28.229Z,19.00
2019-01-28T09:57:57.323Z,16.70
2019-01-28T10:00:29.805Z,18.55
2019-01-28T10:02:59.098Z,15.98
2019-01-28T10:05:28.229Z,16.62
2019-01-28T10:07:58.033Z,19.98
2019-01-28T10:10:27.322Z,18.90
2019-01-28T10:12:56.396Z,16.00
2019-01-28T10:15:28.903Z,18.10
2019-01-28T10:17:57.991Z,16.67
2019-01-28T10:20:30.522Z,16.75
2019-01-28T10:22:59.533Z,19.70
2019-01-28T10:25:28.504Z,17.25
2019-01-28T10:27:57.603Z,18.42
2019-01-28T10:30:28.961Z,16.07
2019-01-28T10:32:57.912Z,17.55
2019-01-28T10:35:28.319Z,19.15
2019-01-28T10:37:57.319Z,16.60
2019-01-28T10:40:28.492Z,14.73
2019-01-28T10:42:57.623Z,18.82
2019-01-28T10:45:26.804Z,14.63
2019-01-28T10:48:00.479Z,16.55
2019-01-28T10:50:27.291Z,13.13
2019-01-28T10:52:56.470Z,17.37
2019-01-28T10:55:25.716Z,16.62
2019-01-28T10:57:54.775Z,14.78
2019-01-28T11:00:26.041Z,16.10
2019-01-28T11:02:55.052Z,17.62
2019-01-28T11:05:24.390Z,17.87
2019-01-28T11:07:53.444Z,15.45
2019-01-28T11:10:22.801Z,15.88
2019-01-28T11:12:52.247Z,15.68
2019-01-28T11:15:23.653Z,12.50
2019-01-28T11:17:53.491Z,15.70
2019-01-28T11:20:22.915Z,20.05
2019-01-28T11:22:51.851Z,14.25
2019-01-28T11:25:23.019Z,14.95
2019-01-28T11:27:52.035Z,12.33
2019-01-28T11:30:24.725Z,16.55
2019-01-28T11:32:53.723Z,13.13
2019-01-28T11:35:22.697Z,14.03
2019-01-28T11:37:51.809Z,17.20
2019-01-28T11:40:20.938Z,16.20
2019-01-28T11:42:49.887Z,13.55
2019-01-28T11:45:25.103Z,22.30
2019-01-28T11:47:54.052Z,13.35
2019-01-28T11:50:22.986Z,16.23
2019-01-28T11:52:51.754Z,12.90
2019-01-28T11:55:20.692Z,13.30
2019-01-28T11:57:49.609Z,16.97
2019-01-28T12:00:52.154Z,17.12
2019-01-28T12:03:21.094Z,14.63
2019-01-28T12:05:50.072Z,12.78
2019-01-28T12:08:19.985Z,13.85
2019-01-28T12:10:49.113Z,13.43
2019-01-28T12:13:18.319Z,14.93
2019-01-28T12:15:47.246Z,13.53
2019-01-28T12:18:16.424Z,13.13
2019-01-28T12:20:53.031Z,14.68
2019-01-28T12:23:16.424Z,15.45
2019-01-28T12:25:45.210Z,13.25
2019-01-28T12:28:14.048Z,12.60
2019-01-28T12:30:43.119Z,14.18
2019-01-28T12:33:12.362Z,14.83
2019-01-28T12:35:41.363Z,17.37
2019-01-28T12:38:10.396Z,13.18
2019-01-28T12:40:39.408Z,12.35
2019-01-28T12:43:08.690Z,13.68
2019-01-28T12:45:37.772Z,13.28
2019-01-28T12:48:06.923Z,14.07
2019-01-28T12:50:36.169Z,11.97
2019-01-28T12:53:05.718Z,17.07
2019-01-28T12:55:35.503Z,13.00
2019-01-28T12:58:04.810Z,12.98
2019-01-28T13:00:38.639Z,16.45
2019-01-28T13:03:08.132Z,12.47
2019-01-28T13:05:37.460Z,17.50
2019-01-28T13:08:07.657Z,16.07
2019-01-28T13:10:36.905Z,15.48
2019-01-28T13:13:06.113Z,14.70
2019-01-28T13:15:35.199Z,14.13
2019-01-28T13:18:04.300Z,15.00
2019-01-28T13:20:33.163Z,14.65
2019-01-28T13:23:02.249Z,14.73
2019-01-28T13:25:31.242Z,16.10
2019-01-28T13:28:00.128Z,13.85
2019-01-28T13:30:32.770Z,18.85
2019-01-28T13:33:02.638Z,14.38
2019-01-28T13:35:31.663Z,13.95
2019-01-28T13:38:00.616Z,17.45
2019-01-28T13:40:37.136Z,16.57
2019-01-28T13:43:12.027Z,18.52
2019-01-28T13:45:44.879Z,15.63
2019-01-28T13:48:23.308Z,17.10
2019-01-28T13:50:58.602Z,17.98
2019-01-28T13:53:32.400Z,17.05
2019-01-28T13:56:15.078Z,17.30
2019-01-28T13:58:54.150Z,15.00
2019-01-28T14:01:44.611Z,19.20
2019-01-28T14:04:13.563Z,21.10
2019-01-28T14:06:42.446Z,21.33
2019-01-28T14:09:14.575Z,18.98
2019-01-28T14:11:43.594Z,25.20
2019-01-28T14:14:19.528Z,24.43
2019-01-28T14:17:44.489Z,19.92
2019-01-28T14:20:40.681Z,26.12
2019-01-28T14:23:18.637Z,24.65
2019-01-28T14:26:29.208Z,25.40
2019-01-28T14:29:39.964Z,21.62
2019-01-28T14:35:03.649Z,24.45
2019-01-28T14:38:08.709Z,20.80
2019-01-28T14:43:51.336Z,29.67
2019-01-28T14:46:48.175Z,29.37
2019-01-28T14:49:17.273Z,37.13
2019-01-28T14:52:31.593Z,32.90
2019-01-28T14:55:30.260Z,25.08
2019-01-28T14:58:41.506Z,32.08
2019-01-28T15:04:29.410Z,27.60
2019-01-28T15:07:12.711Z,27.20
2019-01-28T15:10:32.957Z,27.25
2019-01-28T15:13:21.473Z,23.02
2019-01-28T15:16:00.121Z,32.33
2019-01-28T15:19:18.703Z,31.68
2019-01-28T15:22:00.129Z,33.85
2019-01-28T15:25:01.719Z,33.90
2019-01-28T15:30:22.495Z,33.98
2019-01-28T15:33:13.618Z,28.57
2019-01-28T15:35:43.205Z,36.70
2019-01-28T15:38:12.369Z,33.60
2019-01-28T15:40:42.448Z,29.52
2019-01-28T15:43:11.375Z,26.75
2019-01-28T15:45:42.291Z,33.20
2019-01-28T15:48:17.063Z,35.95
2019-01-28T15:50:46.155Z,37.30
2019-01-28T15:53:15.531Z,31.42
2019-01-28T15:56:03.904Z,30.32
2019-01-28T15:58:38.510Z,35.45
2019-01-28T16:01:07.551Z,35.58
2019-01-28T16:03:36.539Z,34.10
2019-01-28T16:06:05.912Z,33.50
2019-01-28T16:08:35.224Z,31.05
2019-01-28T16:11:04.505Z,27.48
2019-01-28T16:13:33.479Z,28.90
2019-01-28T16:16:02.503Z,26.07
2019-01-28T16:18:34.443Z,23.10
2019-01-28T16:21:02.048Z,29.32
2019-01-28T16:23:30.917Z,27.60
2019-01-28T16:25:59.738Z,27.42
2019-01-28T16:28:28.620Z,26.52
2019-01-28T16:30:57.668Z,29.50
2019-01-28T16:33:26.800Z,31.27
2019-01-28T16:35:55.976Z,27.65
2019-01-28T16:38:25.062Z,29.95
2019-01-28T16:40:53.876Z,31.52
2019-01-28T16:43:22.918Z,36.88
2019-01-28T16:45:51.773Z,34.08
2019-01-28T16:48:20.543Z,34.83
2019-01-28T16:50:49.599Z,32.80
2019-01-28T16:53:18.707Z,32.30
2019-01-28T16:55:47.710Z,38.75
2019-01-28T16:58:38.661Z,38.53
2019-01-28T17:01:08.513Z,38.17
2019-01-28T17:03:37.600Z,44.05
2019-01-28T17:06:10.950Z,47.30
2019-01-28T17:08:40.244Z,44.83
2019-01-28T17:11:09.528Z,39.80
2019-01-28T17:13:40.194Z,29.85
2019-01-28T17:16:09.665Z,31.40
2019-01-28T17:18:39.549Z,21.23
2019-01-28T17:21:09.030Z,16.37
2019-01-28T17:23:57.561Z,11.78
2019-01-28T17:26:29.787Z,11.10
2019-01-28T17:28:58.996Z,14.40
2019-01-28T17:31:29.054Z,9.93
2019-01-28T17:33:59.045Z,8.28
2019-01-28T17:37:00.542Z,9.50
2019-01-28T17:40:17.678Z,9.93
2019-01-28T17:42:47.492Z,9.10
2019-01-28T17:45:25.484Z,10.58
2019-01-28T17:48:19.923Z,10.10
2019-01-28T17:50:49.304Z,9.58
2019-01-28T17:53:18.812Z,11.30
2019-01-28T17:55:51.819Z,9.48
2019-01-28T17:58:32.673Z,11.20
2019-01-28T18:01:13.712Z,15.18
2019-01-28T18:03:43.067Z,11.12
2019-01-28T18:06:13.207Z,9.35
2019-01-28T18:08:42.110Z,9.80
2019-01-28T18:11:11.702Z,11.97
2019-01-28T18:13:40.801Z,12.88
2019-01-28T18:16:09.788Z,12.33
2019-01-28T18:18:41.042Z,9.40
2019-01-28T18:21:32.800Z,13.18
2019-01-28T18:24:03.576Z,10.53
2019-01-28T18:27:04.206Z,8.70
2019-01-28T18:29:33.332Z,10.90
2019-01-28T18:32:03.504Z,12.65
2019-01-28T18:34:32.399Z,8.15
2019-01-28T18:37:01.698Z,10.40
2019-01-28T18:39:31.971Z,9.30
2019-01-28T18:42:00.888Z,8.05
2019-01-28T18:44:31.656Z,8.95
2019-01-28T18:47:00.580Z,8.60
2019-01-28T18:49:29.514Z,9.50
2019-01-28T18:51:58.521Z,7.75
2019-01-28T18:54:30.462Z,9.95
2019-01-28T18:56:59.427Z,12.13
2019-01-28T18:59:28.608Z,7.40
2019-01-28T19:02:01.664Z,8.55
2019-01-28T19:04:30.559Z,6.72
2019-01-28T19:07:34.844Z,6.78
2019-01-28T19:10:13.793Z,7.92
2019-01-28T19:13:01.800Z,10.13
2019-01-28T19:16:04.960Z,9.80
2019-01-28T19:18:42.939Z,8.85
2019-01-28T19:21:36.660Z,10.13
2019-01-28T19:24:08.288Z,12.47
2019-01-28T19:26:39.647Z,12.93
2019-01-28T19:29:10.025Z,10.38
2019-01-28T19:31:39.070Z,11.70
2019-01-28T19:34:08.306Z,13.13
2019-01-28T19:36:58.838Z,9.45
2019-01-28T19:39:27.984Z,11.55
2019-01-28T19:41:56.936Z,12.78
2019-01-28T19:44:28.152Z,9.28
2019-01-28T19:46:56.785Z,11.73
2019-01-28T19:49:31.816Z,10.90
2019-01-28T19:52:03.640Z,18.98
2019-01-28T19:54:32.532Z,10.05
2019-01-28T19:57:01.730Z,11.53
2019-01-28T19:59:30.645Z,12.30
2019-01-28T20:01:59.911Z,15.03
2019-01-28T20:04:29.008Z,13.85
2019-01-28T20:07:00.543Z,10.38
2019-01-28T20:09:29.475Z,12.20
2019-01-28T20:11:58.579Z,13.08
2019-01-28T20:14:27.604Z,13.38
2019-01-28T20:16:56.530Z,13.78
2019-01-28T20:19:25.468Z,13.05
2019-01-28T20:21:54.451Z,11.38
2019-01-28T20:24:23.348Z,13.48
2019-01-28T20:26:52.780Z,12.47
2019-01-28T20:29:21.759Z,15.15
2019-01-28T20:31:50.610Z,12.80
2019-01-28T20:34:19.620Z,11.08
2019-01-28T20:36:48.927Z,10.78
2019-01-28T20:39:17.720Z,9.85
2019-01-28T20:41:46.646Z,11.45
2019-01-28T20:44:15.533Z,14.75
2019-01-28T20:46:44.604Z,17.57
2019-01-28T20:49:13.771Z,12.30
2019-01-28T20:51:42.731Z,10.70
2019-01-28T20:54:11.842Z,11.93
2019-01-28T20:56:40.692Z,15.18
2019-01-28T20:59:09.779Z,13.03
2019-01-28T21:01:38.697Z,9.33
2019-01-28T21:04:07.710Z,10.20
2019-01-28T21:06:36.687Z,13.03
2019-01-28T21:09:08.601Z,10.05
2019-01-28T21:11:37.515Z,9.85
2019-01-28T21:14:06.637Z,10.88
2019-01-28T21:16:35.594Z,9.33
2019-01-28T21:19:04.718Z,14.03
2019-01-28T21:21:41.628Z,10.32
2019-01-28T21:24:04.795Z,10.43
2019-01-28T21:26:33.591Z,8.35
2019-01-28T21:29:02.621Z,11.55
2019-01-28T21:31:31.567Z,8.50
2019-01-28T21:34:00.539Z,9.23
2019-01-28T21:36:36.121Z,8.85
2019-01-28T21:39:12.976Z,9.40
2019-01-28T21:41:41.942Z,6.85
2019-01-28T21:44:12.853Z,8.88
2019-01-28T21:46:41.903Z,7.72
2019-01-28T21:49:10.859Z,8.85
2019-01-28T21:51:39.781Z,9.48
2019-01-28T21:54:09.662Z,7.25
2019-01-28T21:56:38.629Z,10.32
2019-01-28T21:59:07.470Z,9.28
2019-01-28T22:01:36.454Z,8.68
2019-01-28T22:04:05.661Z,10.82
2019-01-28T22:06:34.536Z,11.25
2019-01-28T22:09:03.500Z,11.55
2019-01-28T22:11:32.315Z,13.08
2019-01-28T22:14:01.130Z,9.70
2019-01-28T22:16:30.043Z,11.78
2019-01-28T22:18:58.889Z,11.22
2019-01-28T22:21:27.699Z,13.60
2019-01-28T22:23:56.611Z,14.25
2019-01-28T22:26:25.436Z,14.65
2019-01-28T22:28:54.328Z,10.15
2019-01-28T22:31:23.884Z,14.25
2019-01-28T22:33:53.071Z,12.73
2019-01-28T22:36:21.984Z,14.20
2019-01-28T22:38:50.995Z,12.03
2019-01-28T22:41:19.988Z,12.65
2019-01-28T22:43:49.081Z,10.75
2019-01-28T22:46:18.018Z,13.30
2019-01-28T22:48:47.089Z,15.80
2019-01-28T22:51:15.991Z,12.68
2019-01-28T22:53:44.852Z,13.20
2019-01-28T22:56:14.570Z,10.53
2019-01-28T22:58:43.472Z,15.03
2019-01-28T23:01:30.378Z,12.47
2019-01-28T23:03:59.431Z,11.33
2019-01-28T23:06:28.390Z,11.55
2019-01-28T23:08:57.288Z,9.50
2019-01-28T23:11:26.749Z,8.30
2019-01-28T23:13:55.591Z,14.10
2019-01-28T23:16:24.670Z,13.85
2019-01-28T23:18:53.459Z,9.03
2019-01-28T23:21:22.364Z,12.78
2019-01-28T23:23:51.234Z,12.25
2019-01-28T23:26:20.120Z,12.33
2019-01-28T23:28:48.947Z,10.18
2019-01-28T23:31:17.842Z,10.15
2019-01-28T23:33:47.024Z,9.50
2019-01-28T23:36:15.954Z,11.25
2019-01-28T23:38:44.840Z,10.80
2019-01-28T23:41:13.863Z,10.53
2019-01-28T23:43:42.762Z,16.55
2019-01-28T23:46:11.703Z,9.30
2019-01-28T23:48:40.641Z,12.28
2019-01-28T23:51:09.543Z,11.43
2019-01-28T23:53:38.343Z,7.58
2019-01-28T23:56:07.296Z,9.95
2019-01-28T23:58:36.289Z,9.35
